Time;durP1;ratioP1;P1;durP2;ratioP2;P2;SDS_P1;SDS_P2;PMS_P1;PMS_P2;Temp;Humidity;BMP_temperature;BMP_pressure;BME280_temperature;BME280_humidity;BME280_pressure;Samples;Min_cycle;Max_cycle;Signal;HPM_P1;HPM_P2
2021/12/04 00:01:42;;;;;;;27.75;15.13;;;;;;;;;;6281449;28;20041;-74
2021/12/04 00:04:48;;;;;;;33.75;16.10;;;;;;;;;;6294539;28;20094;-73
2021/12/04 00:07:49;;;;;;;27.77;16.02;;;;;;;;;;6285271;28;20059;-75
2021/12/04 00:10:51;;;;;;;30.30;16.15;;;;;;;;;;6289196;28;20182;-76
2021/12/04 00:13:53;;;;;;;25.15;16.10;;;;;;;;;;6286564;28;20515;-74
2021/12/04 00:16:55;;;;;;;26.55;16.98;;;;;;;;;;6279028;28;20149;-74
2021/12/04 00:19:58;;;;;;;25.55;15.07;;;;;;;;;;6289694;28;20048;-74
2021/12/04 00:23:00;;;;;;;27.20;15.57;;;;;;;;;;6288594;28;20090;-75
2021/12/04 00:26:04;;;;;;;30.42;13.63;;;;;;;;;;6283598;28;20135;-74
2021/12/04 00:29:06;;;;;;;22.55;13.88;;;;;;;;;;6295362;28;20048;-74
2021/12/04 00:32:11;;;;;;;22.48;13.50;;;;;;;;;;6259367;28;20099;-74
2021/12/04 00:35:18;;;;;;;23.33;12.93;;;;;;;;;;6262834;28;20132;-77
2021/12/04 00:51:45;;;;;;;24.98;13.55;;;;;;;;;;6252616;28;20056;-74
2021/12/04 00:54:47;;;;;;;25.25;13.80;;;;;;;;;;6267871;28;20056;-73
2021/12/04 00:57:49;;;;;;;20.15;12.63;;;;;;;;;;6258189;28;20124;-73
2021/12/04 01:00:51;;;;;;;26.27;12.23;;;;;;;;;;6256669;28;20044;-73
2021/12/04 01:03:53;;;;;;;20.88;13.23;;;;;;;;;;6263269;28;20097;-73
2021/12/04 01:06:56;;;;;;;20.08;12.88;;;;;;;;;;6252910;28;20562;-73
2021/12/04 01:09:57;;;;;;;22.38;12.25;;;;;;;;;;6271431;28;20049;-77
2021/12/04 01:13:00;;;;;;;21.55;12.20;;;;;;;;;;6257966;28;20049;-75
2021/12/04 01:16:02;;;;;;;26.30;12.95;;;;;;;;;;6269011;28;20041;-77
2021/12/04 01:19:04;;;;;;;25.33;13.15;;;;;;;;;;6267100;28;20553;-75
2021/12/04 01:22:07;;;;;;;18.52;11.38;;;;;;;;;;6254351;28;20349;-74
2021/12/04 01:25:09;;;;;;;25.33;11.30;;;;;;;;;;6264198;28;20090;-77
2021/12/04 01:28:11;;;;;;;23.50;11.73;;;;;;;;;;6265248;28;20423;-75
2021/12/04 01:31:12;;;;;;;22.40;12.40;;;;;;;;;;6243079;28;20192;-74
2021/12/04 01:34:15;;;;;;;19.30;11.52;;;;;;;;;;6281887;28;20078;-74
2021/12/04 01:37:19;;;;;;;18.52;11.05;;;;;;;;;;6256916;28;20212;-74
2021/12/04 01:40:21;;;;;;;17.95;11.13;;;;;;;;;;6251864;28;20544;-77
2021/12/04 01:43:22;;;;;;;19.20;10.82;;;;;;;;;;6266706;28;20488;-73
2021/12/04 01:46:24;;;;;;;15.30;10.63;;;;;;;;;;6257884;28;20120;-74
2021/12/04 01:49:26;;;;;;;20.45;11.23;;;;;;;;;;6263093;28;20134;-73
2021/12/04 01:52:29;;;;;;;19.20;10.73;;;;;;;;;;6250108;28;20077;-73
2021/12/04 01:55:33;;;;;;;19.55;11.30;;;;;;;;;;6255417;28;20963;-75
2021/12/04 01:58:35;;;;;;;18.95;11.63;;;;;;;;;;6262579;28;20063;-75
2021/12/04 02:01:36;;;;;;;20.58;11.02;;;;;;;;;;6251469;28;20480;-72
2021/12/04 02:04:38;;;;;;;19.13;10.80;;;;;;;;;;6265059;28;20466;-73
2021/12/04 02:07:41;;;;;;;22.00;10.80;;;;;;;;;;6247430;28;20133;-70
2021/12/04 02:10:43;;;;;;;21.70;11.48;;;;;;;;;;6265605;28;20487;-71
2021/12/04 02:13:45;;;;;;;16.20;10.13;;;;;;;;;;6271246;28;20056;-70
2021/12/04 02:16:47;;;;;;;22.25;10.50;;;;;;;;;;6251699;28;20123;-71
2021/12/04 02:19:49;;;;;;;18.50;9.85;;;;;;;;;;6264638;28;20066;-74
2021/12/04 02:22:52;;;;;;;16.13;9.75;;;;;;;;;;6253635;28;20139;-72
2021/12/04 02:25:53;;;;;;;15.35;9.90;;;;;;;;;;6256302;28;20117;-71
2021/12/04 02:28:57;;;;;;;14.40;9.40;;;;;;;;;;6264667;28;20041;-71
2021/12/04 02:31:59;;;;;;;17.23;9.52;;;;;;;;;;6247770;28;20131;-72
2021/12/04 02:35:01;;;;;;;17.70;9.90;;;;;;;;;;6268857;28;20191;-71
2021/12/04 02:38:06;;;;;;;17.23;9.77;;;;;;;;;;6262633;28;20106;-71
2021/12/04 02:41:09;;;;;;;14.50;8.25;;;;;;;;;;6252030;28;20058;-70
2021/12/04 02:44:10;;;;;;;15.38;8.80;;;;;;;;;;6271562;28;20050;-71
2021/12/04 02:47:12;;;;;;;13.70;8.15;;;;;;;;;;6269080;28;20056;-71
2021/12/04 02:50:16;;;;;;;14.10;8.35;;;;;;;;;;6289142;28;20087;-73
2021/12/04 02:53:19;;;;;;;14.68;8.65;;;;;;;;;;6288115;28;20053;-71
2021/12/04 02:56:21;;;;;;;13.98;8.45;;;;;;;;;;6280238;28;20093;-73
2021/12/04 02:59:23;;;;;;;16.27;9.30;;;;;;;;;;6290060;28;20051;-73
2021/12/04 03:02:25;;;;;;;15.10;8.77;;;;;;;;;;6281637;28;20059;-73
2021/12/04 03:05:28;;;;;;;15.40;9.48;;;;;;;;;;6287018;28;20928;-73
2021/12/04 03:08:31;;;;;;;15.98;9.02;;;;;;;;;;6300245;28;20508;-72
2021/12/04 03:11:32;;;;;;;14.50;8.35;;;;;;;;;;6279893;28;20131;-73
2021/12/04 03:14:34;;;;;;;14.63;9.27;;;;;;;;;;6292301;28;20101;-74
2021/12/04 03:17:36;;;;;;;18.80;9.35;;;;;;;;;;6277348;28;20146;-72
2021/12/04 03:20:42;;;;;;;18.48;9.15;;;;;;;;;;6285124;28;20174;-71
2021/12/04 03:23:53;;;;;;;16.25;10.18;;;;;;;;;;6300776;28;20040;-71
2021/12/04 03:26:55;;;;;;;18.67;10.82;;;;;;;;;;6284347;28;20102;-74
2021/12/04 03:29:59;;;;;;;17.20;10.27;;;;;;;;;;6295555;28;20056;-74
2021/12/04 03:43:09;;;;;;;19.30;10.80;;;;;;;;;;6243976;28;20041;-73
2021/12/04 03:46:15;;;;;;;15.85;9.80;;;;;;;;;;6282741;28;20564;-74
2021/12/04 03:49:16;;;;;;;21.63;9.95;;;;;;;;;;6293993;28;20182;-74
2021/12/04 03:52:18;;;;;;;21.10;11.40;;;;;;;;;;6291041;28;20131;-74
2021/12/04 03:55:21;;;;;;;20.83;10.65;;;;;;;;;;6279039;28;20048;-74
2021/12/04 03:58:23;;;;;;;19.15;10.93;;;;;;;;;;6290533;28;20500;-73
2021/12/04 04:01:25;;;;;;;21.02;10.88;;;;;;;;;;6286686;28;20162;-73
2021/12/04 04:04:26;;;;;;;20.42;11.48;;;;;;;;;;6294358;28;20177;-74
2021/12/04 04:07:28;;;;;;;18.92;10.50;;;;;;;;;;6285243;28;21238;-74
2021/12/04 04:10:31;;;;;;;16.92;11.20;;;;;;;;;;6281211;28;20162;-76
2021/12/04 04:13:33;;;;;;;21.65;11.50;;;;;;;;;;6289495;28;20127;-74
2021/12/04 04:16:37;;;;;;;18.73;11.15;;;;;;;;;;6274745;28;20048;-75
2021/12/04 04:19:38;;;;;;;22.80;11.60;;;;;;;;;;6285163;28;20049;-74
2021/12/04 04:22:40;;;;;;;21.50;11.70;;;;;;;;;;6276356;28;20036;-73
2021/12/04 04:25:43;;;;;;;22.10;11.75;;;;;;;;;;6278259;28;20816;-73
2021/12/04 04:28:44;;;;;;;22.67;11.30;;;;;;;;;;6285731;28;20385;-73
2021/12/04 04:31:47;;;;;;;17.08;10.85;;;;;;;;;;6272187;28;20040;-76
2021/12/04 04:34:52;;;;;;;19.65;11.80;;;;;;;;;;6299895;28;20041;-74
2021/12/04 04:38:01;;;;;;;18.55;10.82;;;;;;;;;;6283906;28;20048;-74
2021/12/04 04:58:02;;;;;;;18.08;10.77;;;;;;;;;;6265135;28;20479;-73
2021/12/04 05:01:23;;;;;;;20.27;11.00;;;;;;;;;;6279888;28;20662;-74
2021/12/04 05:11:10;;;;;;;21.48;10.93;;;;;;;;;;6275723;28;20044;-73
2021/12/04 05:14:19;;;;;;;17.08;10.10;;;;;;;;;;6291398;28;20040;-73
2021/12/04 05:17:29;;;;;;;16.20;9.77;;;;;;;;;;6261327;28;20569;-73
2021/12/04 05:20:34;;;;;;;19.13;10.30;;;;;;;;;;6269542;28;20135;-74
2021/12/04 05:23:40;;;;;;;17.60;9.65;;;;;;;;;;6268613;28;20520;-73
2021/12/04 05:26:41;;;;;;;23.00;10.32;;;;;;;;;;6270487;28;20060;-74
2021/12/04 05:29:44;;;;;;;15.38;9.27;;;;;;;;;;6273062;28;20153;-73
2021/12/04 05:32:46;;;;;;;16.42;8.98;;;;;;;;;;6243642;28;20086;-73
2021/12/04 05:35:48;;;;;;;14.85;9.18;;;;;;;;;;6253389;28;20139;-74
2021/12/04 05:38:50;;;;;;;15.20;9.38;;;;;;;;;;6280144;28;20053;-74
2021/12/04 05:41:52;;;;;;;14.25;9.00;;;;;;;;;;6283688;28;20066;-74
2021/12/04 05:44:55;;;;;;;15.85;9.20;;;;;;;;;;6290173;28;20392;-74
2021/12/04 05:48:01;;;;;;;17.48;8.98;;;;;;;;;;6272869;28;20187;-74
2021/12/04 05:57:38;;;;;;;14.38;8.45;;;;;;;;;;6249091;28;20049;-74
2021/12/04 06:00:41;;;;;;;16.23;8.77;;;;;;;;;;6254222;28;20145;-74
2021/12/04 06:03:43;;;;;;;15.30;8.27;;;;;;;;;;6258167;28;20167;-74
2021/12/04 06:06:44;;;;;;;14.90;9.20;;;;;;;;;;6252262;28;20055;-74
2021/12/04 06:09:46;;;;;;;17.08;9.13;;;;;;;;;;6257411;28;20172;-74
2021/12/04 06:12:47;;;;;;;16.52;8.30;;;;;;;;;;6262952;28;20063;-74
2021/12/04 06:15:51;;;;;;;16.17;8.63;;;;;;;;;;6257510;28;20050;-74
2021/12/04 06:18:53;;;;;;;13.37;7.97;;;;;;;;;;6261027;28;20525;-73
2021/12/04 06:25:19;;;;;;;13.65;8.10;;;;;;;;;;6260192;28;20049;-76
2021/12/04 06:28:20;;;;;;;13.90;8.07;;;;;;;;;;6260277;28;20064;-74
2021/12/04 06:31:24;;;;;;;15.35;7.95;;;;;;;;;;6258901;28;20033;-73
2021/12/04 06:34:27;;;;;;;13.00;7.68;;;;;;;;;;6270941;28;20049;-76
2021/12/04 06:37:29;;;;;;;16.42;7.57;;;;;;;;;;6254231;28;20451;-74
2021/12/04 06:40:30;;;;;;;12.05;7.57;;;;;;;;;;6266250;28;20216;-76
2021/12/04 06:43:33;;;;;;;12.18;7.25;;;;;;;;;;6277951;28;20393;-74
2021/12/04 06:46:38;;;;;;;13.07;7.90;;;;;;;;;;6249115;28;20380;-75
2021/12/04 06:49:42;;;;;;;13.88;7.03;;;;;;;;;;6263389;28;20170;-75
2021/12/04 06:52:46;;;;;;;10.95;6.57;;;;;;;;;;6282660;28;20060;-73
2021/12/04 06:55:50;;;;;;;11.73;7.10;;;;;;;;;;6265619;28;20048;-73
2021/12/04 06:58:53;;;;;;;15.05;6.78;;;;;;;;;;6266610;28;20045;-74
2021/12/04 07:01:56;;;;;;;11.88;6.95;;;;;;;;;;6259391;28;20053;-74
2021/12/04 07:04:57;;;;;;;12.40;6.53;;;;;;;;;;6260370;28;20388;-75
2021/12/04 07:07:59;;;;;;;12.90;7.68;;;;;;;;;;6255235;28;20672;-74
2021/12/04 07:11:04;;;;;;;11.30;6.45;;;;;;;;;;6252458;28;20102;-73
2021/12/04 07:14:05;;;;;;;10.57;6.35;;;;;;;;;;6268741;28;20045;-74
2021/12/04 07:17:09;;;;;;;15.25;7.20;;;;;;;;;;6252941;28;20203;-75
2021/12/04 07:20:11;;;;;;;11.02;7.07;;;;;;;;;;6258789;28;20048;-77
2021/12/04 07:23:13;;;;;;;11.55;7.40;;;;;;;;;;6259491;28;20132;-74
2021/12/04 07:26:14;;;;;;;14.18;7.32;;;;;;;;;;6246830;28;20748;-73
2021/12/04 07:29:16;;;;;;;12.80;7.32;;;;;;;;;;6265244;28;20140;-74
2021/12/04 07:32:19;;;;;;;11.45;6.70;;;;;;;;;;6245291;28;20058;-74
2021/12/04 07:35:22;;;;;;;14.85;7.43;;;;;;;;;;6258848;28;20191;-76
2021/12/04 07:38:24;;;;;;;13.10;6.77;;;;;;;;;;6263984;28;20739;-74
2021/12/04 07:41:26;;;;;;;10.98;7.35;;;;;;;;;;6247645;28;20044;-74
2021/12/04 07:44:28;;;;;;;11.63;7.32;;;;;;;;;;6262045;28;20068;-74
2021/12/04 07:47:31;;;;;;;10.15;6.55;;;;;;;;;;6248641;28;20554;-74
2021/12/04 07:50:33;;;;;;;10.75;6.72;;;;;;;;;;6256919;28;20082;-74
2021/12/04 07:53:35;;;;;;;12.93;6.90;;;;;;;;;;6275664;28;20043;-74
2021/12/04 07:56:37;;;;;;;12.32;7.03;;;;;;;;;;6258485;28;20447;-74
2021/12/04 07:59:38;;;;;;;13.57;7.68;;;;;;;;;;6259010;28;20046;-74
2021/12/04 08:02:42;;;;;;;12.07;7.18;;;;;;;;;;6247860;28;20046;-74
2021/12/04 08:05:44;;;;;;;12.52;6.78;;;;;;;;;;6256970;28;20080;-74
2021/12/04 08:08:46;;;;;;;14.55;7.40;;;;;;;;;;6262425;28;20033;-76
2021/12/04 08:11:50;;;;;;;15.07;7.75;;;;;;;;;;6247206;28;20047;-74
2021/12/04 08:14:53;;;;;;;13.35;7.50;;;;;;;;;;6213000;28;20181;-75
2021/12/04 08:17:56;;;;;;;15.68;7.72;;;;;;;;;;6213814;28;20065;-74
2021/12/04 08:20:59;;;;;;;15.98;8.25;;;;;;;;;;6207794;28;20133;-74
2021/12/04 08:24:00;;;;;;;13.13;8.55;;;;;;;;;;6204985;28;20534;-74
2021/12/04 08:27:03;;;;;;;14.98;8.43;;;;;;;;;;6224642;28;20049;-75
2021/12/04 08:30:06;;;;;;;14.35;8.90;;;;;;;;;;6217342;28;20421;-77
2021/12/04 08:33:10;;;;;;;17.85;8.98;;;;;;;;;;6202746;28;20597;-74
2021/12/04 08:36:12;;;;;;;15.85;8.07;;;;;;;;;;6212566;28;20530;-74
2021/12/04 08:39:14;;;;;;;19.20;9.00;;;;;;;;;;6216756;28;20054;-74
2021/12/04 08:42:15;;;;;;;15.00;8.40;;;;;;;;;;6208306;28;20100;-74
2021/12/04 08:45:17;;;;;;;13.20;7.95;;;;;;;;;;6198832;28;20108;-75
2021/12/04 08:48:20;;;;;;;13.07;8.32;;;;;;;;;;6224372;28;20124;-76
2021/12/04 08:51:23;;;;;;;19.10;9.05;;;;;;;;;;6202173;28;20118;-75
2021/12/04 08:54:25;;;;;;;14.85;8.48;;;;;;;;;;6227774;28;20061;-74
2021/12/04 08:57:26;;;;;;;14.70;8.82;;;;;;;;;;6200597;28;20133;-74
2021/12/04 09:00:34;;;;;;;14.50;8.32;;;;;;;;;;6221589;28;20087;-74
2021/12/04 09:03:39;;;;;;;13.25;7.68;;;;;;;;;;6223917;28;20136;-72
2021/12/04 09:06:41;;;;;;;17.30;8.82;;;;;;;;;;6219160;28;20049;-77
2021/12/04 09:09:43;;;;;;;18.48;8.63;;;;;;;;;;6220879;28;20120;-73
2021/12/04 09:12:46;;;;;;;14.77;8.80;;;;;;;;;;6222023;28;20148;-74
2021/12/04 09:15:49;;;;;;;14.75;8.18;;;;;;;;;;6254862;28;20619;-75
2021/12/04 09:18:52;;;;;;;14.68;8.93;;;;;;;;;;6253662;28;21636;-74
2021/12/04 09:21:54;;;;;;;18.85;8.77;;;;;;;;;;6258906;28;20672;-76
2021/12/04 09:24:58;;;;;;;14.05;8.52;;;;;;;;;;6265329;28;20211;-76
2021/12/04 09:28:10;;;;;;;14.88;8.18;;;;;;;;;;6263460;28;20067;-76
2021/12/04 09:31:33;;;;;;;14.93;9.23;;;;;;;;;;6247474;28;20619;-77
2021/12/04 09:34:59;;;;;;;17.55;8.32;;;;;;;;;;6263911;28;20052;-77
2021/12/04 10:01:41;;;;;;;14.18;8.85;;;;;;;;;;6271715;28;20135;-75
2021/12/04 10:11:59;;;;;;;12.05;7.32;;;;;;;;;;6275387;28;20045;-77
2021/12/04 10:18:57;;;;;;;12.30;7.78;;;;;;;;;;6282632;28;20040;-74
2021/12/04 10:22:08;;;;;;;;;;;;;;;;;;6277434;28;20040;-75
2021/12/04 10:35:22;;;;;;;12.23;8.68;;;;;;;;;;6255874;28;20186;-76
2021/12/04 10:38:26;;;;;;;16.48;8.57;;;;;;;;;;6281247;28;20519;-75
2021/12/04 10:41:33;;;;;;;12.48;8.48;;;;;;;;;;6272564;28;20048;-75
2021/12/04 10:44:41;;;;;;;13.77;8.88;;;;;;;;;;6288902;28;20052;-77
2021/12/04 10:47:51;;;;;;;14.75;8.13;;;;;;;;;;6272036;28;20120;-76
2021/12/04 10:50:59;;;;;;;14.98;9.23;;;;;;;;;;6272717;28;20414;-72
2021/12/04 10:54:16;;;;;;;15.43;8.77;;;;;;;;;;6281541;28;20053;-72
2021/12/04 11:00:51;;;;;;;16.05;9.73;;;;;;;;;;6255631;28;20500;-72
2021/12/04 11:03:58;;;;;;;19.52;11.18;;;;;;;;;;6284511;28;20056;-72
2021/12/04 11:21:14;;;;;;;25.48;14.27;;;;;;;;;;6278947;28;20171;-74
2021/12/04 11:27:49;;;;;;;24.30;14.27;;;;;;;;;;6285163;28;20048;-74
2021/12/04 11:37:58;;;;;;;25.08;13.27;;;;;;;;;;6282921;28;20045;-76
2021/12/04 11:44:26;;;;;;;21.23;13.68;;;;;;;;;;6292352;28;20458;-76
2021/12/04 11:47:37;;;;;;;25.35;13.13;;;;;;;;;;6276746;28;20056;-75
2021/12/04 11:50:41;;;;;;;23.27;13.07;;;;;;;;;;6280672;28;20100;-76
2021/12/04 11:53:43;;;;;;;19.10;12.23;;;;;;;;;;6287349;28;20072;-71
2021/12/04 11:56:45;;;;;;;20.60;12.55;;;;;;;;;;6282125;28;20804;-72
2021/12/04 11:59:48;;;;;;;25.48;12.60;;;;;;;;;;6283392;28;20040;-72
2021/12/04 12:02:53;;;;;;;19.33;11.70;;;;;;;;;;6274633;28;20213;-72
2021/12/04 12:05:58;;;;;;;21.23;12.23;;;;;;;;;;6282370;28;20045;-72
2021/12/04 12:09:04;;;;;;;23.20;12.68;;;;;;;;;;6290346;28;21773;-72
2021/12/04 12:12:07;;;;;;;19.98;12.02;;;;;;;;;;6278387;28;20049;-73
2021/12/04 12:15:19;;;;;;;18.10;11.52;;;;;;;;;;6284241;28;20103;-74
2021/12/04 12:18:22;;;;;;;15.77;11.02;;;;;;;;;;6267330;28;20166;-72
2021/12/04 12:21:29;;;;;;;18.57;11.07;;;;;;;;;;6275429;28;20056;-70
2021/12/04 12:24:45;;;;;;;19.15;11.25;;;;;;;;;;6290117;28;20054;-70
2021/12/04 12:27:56;;;;;;;17.92;11.00;;;;;;;;;;6280752;28;20047;-72
2021/12/04 12:37:50;;;;;;;19.00;10.05;;;;;;;;;;6289304;28;20049;-71
2021/12/04 12:41:00;;;;;;;17.25;10.20;;;;;;;;;;6288901;28;20106;-71
2021/12/04 12:44:06;;;;;;;21.90;11.00;;;;;;;;;;6289747;28;20052;-70
2021/12/04 12:47:17;;;;;;;17.90;11.43;;;;;;;;;;6283868;28;20132;-73
2021/12/04 12:50:34;;;;;;;19.67;11.07;;;;;;;;;;6285028;28;20177;-70
2021/12/04 12:53:41;;;;;;;18.17;10.88;;;;;;;;;;6291078;28;20143;-70
2021/12/04 12:56:46;;;;;;;15.63;10.32;;;;;;;;;;6292813;28;20133;-70
2021/12/04 13:11:35;;;;;;;15.95;10.40;;;;;;;;;;6297666;28;20118;-69
2021/12/04 13:13:34;;;;;;;17.27;11.30;;;;;;;;;;6290177;28;20057;-69
2021/12/04 13:16:35;;;;;;;19.40;11.73;;;;;;;;;;6285202;28;20179;-68
2021/12/04 13:19:39;;;;;;;14.88;10.75;;;;;;;;;;6290715;28;20117;-69
2021/12/04 13:22:42;;;;;;;17.63;10.63;;;;;;;;;;6290783;28;20463;-69
2021/12/04 13:25:50;;;;;;;18.33;11.68;;;;;;;;;;6292056;28;20049;-69
2021/12/04 13:28:53;;;;;;;17.38;11.23;;;;;;;;;;6301819;28;20131;-72
2021/12/04 13:31:56;;;;;;;16.38;10.82;;;;;;;;;;6273070;28;20068;-71
2021/12/04 13:35:04;;;;;;;17.67;10.45;;;;;;;;;;6296859;28;20076;-74
2021/12/04 13:38:07;;;;;;;21.30;12.05;;;;;;;;;;6285853;28;20132;-74
2021/12/04 13:41:10;;;;;;;22.38;11.98;;;;;;;;;;6284426;28;20502;-71
2021/12/04 13:44:15;;;;;;;21.17;12.20;;;;;;;;;;6286729;28;20041;-71
2021/12/04 13:47:16;;;;;;;21.90;11.55;;;;;;;;;;6272003;28;20047;-72
2021/12/04 13:53:43;;;;;;;22.25;11.75;;;;;;;;;;6290405;28;20044;-71
2021/12/04 13:56:45;;;;;;;21.35;10.57;;;;;;;;;;6276407;28;20175;-71
2021/12/04 13:59:46;;;;;;;19.13;11.32;;;;;;;;;;6301000;28;20048;-71
2021/12/04 14:02:48;;;;;;;21.00;10.27;;;;;;;;;;6277564;28;20079;-71
2021/12/04 14:05:50;;;;;;;19.35;11.95;;;;;;;;;;6282531;28;20032;-71
2021/12/04 14:09:01;;;;;;;22.65;11.57;;;;;;;;;;6292211;28;20177;-69
2021/12/04 14:12:04;;;;;;;20.80;11.52;;;;;;;;;;6290113;28;20141;-74
2021/12/04 14:15:09;;;;;;;19.85;11.38;;;;;;;;;;6292521;28;20131;-78
2021/12/04 14:18:11;;;;;;;;;;;;;;;;;;6292987;28;20094;-70
2021/12/04 14:21:13;;;;;;;18.48;10.60;;;;;;;;;;6284374;28;19920;-70
2021/12/04 14:24:24;;;;;;;18.95;10.45;;;;;;;;;;6302246;28;20457;-70
2021/12/04 14:27:28;;;;;;;16.63;10.50;;;;;;;;;;6277487;28;20045;-70
2021/12/04 14:30:33;;;;;;;22.27;11.90;;;;;;;;;;6283274;28;20048;-78
2021/12/04 14:33:38;;;;;;;19.48;11.52;;;;;;;;;;6285782;28;20044;-71
2021/12/04 14:36:39;;;;;;;17.95;11.13;;;;;;;;;;6288965;28;20056;-70
2021/12/04 14:39:44;;;;;;;19.88;11.60;;;;;;;;;;6297013;28;20455;-70
2021/12/04 14:42:46;;;;;;;19.67;12.68;;;;;;;;;;6278496;28;20097;-70
2021/12/04 14:45:51;;;;;;;23.50;12.13;;;;;;;;;;6289719;28;20135;-69
2021/12/04 14:48:54;;;;;;;20.45;12.50;;;;;;;;;;6289625;28;20481;-69
2021/12/04 14:51:55;;;;;;;18.98;12.10;;;;;;;;;;6284325;28;20067;-70
2021/12/04 14:55:00;;;;;;;24.98;12.80;;;;;;;;;;6303476;28;20412;-70
2021/12/04 14:58:05;;;;;;;20.80;12.32;;;;;;;;;;6294933;28;20056;-71
2021/12/04 15:01:08;;;;;;;19.98;12.40;;;;;;;;;;6286639;28;20122;-72
2021/12/04 15:04:10;;;;;;;17.75;11.25;;;;;;;;;;6294177;28;20385;-71
2021/12/04 15:07:20;;;;;;;22.65;13.23;;;;;;;;;;6285250;28;20132;-71
2021/12/04 15:10:23;;;;;;;20.80;12.23;;;;;;;;;;6256673;28;20323;-77
2021/12/04 15:13:26;;;;;;;21.00;11.88;;;;;;;;;;6298396;28;20393;-73
2021/12/04 15:16:34;;;;;;;19.80;12.23;;;;;;;;;;6267548;28;20091;-70
2021/12/04 15:19:39;;;;;;;22.77;13.13;;;;;;;;;;6284881;28;20052;-71
2021/12/04 15:22:43;;;;;;;23.75;13.75;;;;;;;;;;6267142;28;20396;-69
2021/12/04 15:25:49;;;;;;;17.92;12.40;;;;;;;;;;6270453;28;20477;-71
2021/12/04 15:28:53;;;;;;;20.13;12.65;;;;;;;;;;6272372;28;20045;-71
2021/12/04 15:31:57;;;;;;;22.77;13.85;;;;;;;;;;6252560;28;20053;-70
2021/12/04 15:35:04;;;;;;;22.38;13.50;;;;;;;;;;6263536;28;20056;-70
2021/12/04 15:38:09;;;;;;;20.08;13.27;;;;;;;;;;6254534;28;20061;-68
2021/12/04 15:41:29;;;;;;;74.28;36.47;;;;;;;;;;6258817;28;20068;-69
2021/12/04 15:44:49;;;;;;;48.88;26.40;;;;;;;;;;6253951;28;20132;-68
2021/12/04 15:48:06;;;;;;;37.72;20.42;;;;;;;;;;6248535;28;20480;-69
2021/12/04 15:51:29;;;;;;;21.73;13.43;;;;;;;;;;6270439;28;20045;-72
2021/12/04 15:54:35;;;;;;;19.13;13.65;;;;;;;;;;6261169;28;20049;-73
2021/12/04 15:57:39;;;;;;;19.50;12.98;;;;;;;;;;6263783;28;20130;-71
2021/12/04 16:00:43;;;;;;;21.40;13.93;;;;;;;;;;6257308;28;20041;-70
2021/12/04 16:03:48;;;;;;;;;;;;;;;;;;6267344;28;20194;-73
2021/12/04 16:06:50;;;;;;;22.52;13.55;;;;;;;;;;6260671;28;20000;-72
2021/12/04 16:09:51;;;;;;;22.30;14.65;;;;;;;;;;6285638;28;20045;-76
2021/12/04 16:12:56;;;;;;;21.17;13.98;;;;;;;;;;6260461;28;20174;-70
2021/12/04 16:16:00;;;;;;;21.77;14.07;;;;;;;;;;6258101;28;20172;-71
2021/12/04 16:19:03;;;;;;;22.70;15.60;;;;;;;;;;6266410;28;20130;-70
2021/12/04 16:22:08;;;;;;;23.85;14.85;;;;;;;;;;6263894;28;20132;-73
2021/12/04 16:25:13;;;;;;;24.58;15.20;;;;;;;;;;6269937;28;20049;-75
2021/12/04 16:28:36;;;;;;;23.02;14.52;;;;;;;;;;6264900;28;20045;-69
2021/12/04 16:35:19;;;;;;;22.35;15.85;;;;;;;;;;6265617;28;20049;-79
2021/12/04 16:38:22;;;;;;;27.60;16.50;;;;;;;;;;6273645;28;20057;-70
2021/12/04 16:41:25;;;;;;;27.02;16.52;;;;;;;;;;6265898;28;20055;-70
2021/12/04 16:44:28;;;;;;;28.42;17.42;;;;;;;;;;6268545;28;20420;-70
2021/12/04 16:47:30;;;;;;;23.75;15.90;;;;;;;;;;6258981;28;20099;-70
2021/12/04 16:50:45;;;;;;;27.63;17.35;;;;;;;;;;6260523;28;20059;-70
2021/12/04 17:00:27;;;;;;;29.15;17.90;;;;;;;;;;6272378;28;20036;-75
2021/12/04 17:03:29;;;;;;;26.38;17.67;;;;;;;;;;6264769;28;20044;-71
2021/12/04 17:06:31;;;;;;;28.23;17.15;;;;;;;;;;6261140;28;20603;-71
2021/12/04 17:09:33;;;;;;;25.92;16.73;;;;;;;;;;6263219;28;20176;-72
2021/12/04 17:12:36;;;;;;;27.92;16.50;;;;;;;;;;6254722;28;20545;-70
2021/12/04 17:15:44;;;;;;;27.33;18.00;;;;;;;;;;6253078;28;20400;-71
2021/12/04 17:18:50;;;;;;;28.48;18.25;;;;;;;;;;6274240;28;20055;-68
2021/12/04 17:21:54;;;;;;;28.10;18.52;;;;;;;;;;6264176;28;20528;-72
2021/12/04 17:24:56;;;;;;;28.20;18.23;;;;;;;;;;6262504;28;20060;-70
2021/12/04 17:27:58;;;;;;;26.30;17.58;;;;;;;;;;6269767;28;20101;-70
2021/12/04 17:31:01;;;;;;;34.92;18.50;;;;;;;;;;6278049;28;20131;-74
2021/12/04 17:34:03;;;;;;;28.37;18.13;;;;;;;;;;6289993;28;20079;-70
2021/12/04 17:37:05;;;;;;;26.88;17.02;;;;;;;;;;6286027;28;20201;-70
2021/12/04 17:40:08;;;;;;;23.70;17.20;;;;;;;;;;6279451;28;20194;-78
2021/12/04 17:43:10;;;;;;;28.17;17.00;;;;;;;;;;6285953;28;20098;-70
2021/12/04 17:46:16;;;;;;;25.95;17.27;;;;;;;;;;6272631;28;20044;-70
2021/12/04 17:49:18;;;;;;;26.75;16.58;;;;;;;;;;6267155;28;20124;-71
2021/12/04 17:52:20;;;;;;;24.27;16.33;;;;;;;;;;6281459;28;20124;-73
2021/12/04 17:55:23;;;;;;;24.42;17.05;;;;;;;;;;6281887;28;20102;-75
2021/12/04 17:58:25;;;;;;;30.92;17.50;;;;;;;;;;6291355;28;20075;-72
2021/12/04 18:01:32;;;;;;;27.02;17.75;;;;;;;;;;6273971;28;20098;-73
2021/12/04 18:04:36;;;;;;;26.48;17.52;;;;;;;;;;6294240;28;20125;-72
2021/12/04 18:07:39;;;;;;;24.83;16.95;;;;;;;;;;6280850;28;20405;-72
2021/12/04 18:10:41;;;;;;;30.10;17.50;;;;;;;;;;6279444;28;20049;-71
2021/12/04 18:13:46;;;;;;;25.67;17.27;;;;;;;;;;6288058;28;20056;-72
2021/12/04 18:16:50;;;;;;;;;;;;;;;;;;6272004;28;20109;-71
2021/12/04 18:19:52;;;;;;;26.45;17.27;;;;;;;;;;6289976;28;20295;-71
2021/12/04 18:22:54;;;;;;;26.77;16.90;;;;;;;;;;6279011;28;20500;-71
2021/12/04 18:25:56;;;;;;;25.92;16.83;;;;;;;;;;6276194;28;20044;-71
2021/12/04 18:28:58;;;;;;;24.52;17.00;;;;;;;;;;6296354;28;20128;-71
2021/12/04 18:32:03;;;;;;;30.20;18.88;;;;;;;;;;6275555;28;22544;-72
2021/12/04 18:35:04;;;;;;;;;;;;;;;;;;6261070;28;20044;-71
2021/12/04 18:38:07;;;;;;;25.90;15.77;;;;;;;;;;6272361;28;20371;-72
2021/12/04 18:41:09;;;;;;;24.05;16.83;;;;;;;;;;6274095;28;20122;-72
2021/12/04 18:44:13;;;;;;;26.83;17.23;;;;;;;;;;6258455;28;20135;-68
2021/12/04 18:47:16;;;;;;;27.73;17.70;;;;;;;;;;6242753;28;20378;-71
2021/12/04 18:50:20;;;;;;;28.48;18.02;;;;;;;;;;6257706;28;20056;-71
2021/12/04 18:53:21;;;;;;;27.20;18.20;;;;;;;;;;6261719;28;20510;-71
2021/12/04 18:56:23;;;;;;;26.75;17.40;;;;;;;;;;6255060;28;20044;-70
2021/12/04 18:59:25;;;;;;;26.23;17.23;;;;;;;;;;6260401;28;20123;-72
2021/12/04 19:02:30;;;;;;;26.77;17.17;;;;;;;;;;6246824;28;20041;-71
2021/12/04 19:05:33;;;;;;;26.40;16.52;;;;;;;;;;6255651;28;20047;-78
2021/12/04 19:08:36;;;;;;;28.30;17.65;;;;;;;;;;6257092;28;20509;-71
2021/12/04 19:11:38;;;;;;;27.40;17.57;;;;;;;;;;6255470;28;20507;-71
2021/12/04 19:14:41;;;;;;;23.30;16.60;;;;;;;;;;6267072;28;20587;-71
2021/12/04 19:17:44;;;;;;;28.58;17.65;;;;;;;;;;6249957;28;21006;-70
2021/12/04 19:20:48;;;;;;;24.13;16.05;;;;;;;;;;6252910;28;20041;-71
2021/12/04 19:23:50;;;;;;;25.65;16.85;;;;;;;;;;6264646;28;20124;-71
2021/12/04 19:26:52;;;;;;;27.75;17.40;;;;;;;;;;6273229;28;20266;-72
2021/12/04 19:29:54;;;;;;;29.25;17.83;;;;;;;;;;6275976;28;20178;-74
2021/12/04 19:33:06;;;;;;;28.98;17.38;;;;;;;;;;6263499;28;20075;-71
2021/12/04 19:52:55;;;;;;;27.00;17.45;;;;;;;;;;6257425;28;20409;-70
2021/12/04 19:56:04;;;;;;;31.13;18.98;;;;;;;;;;6261633;28;20056;-71
2021/12/04 19:59:09;;;;;;;34.70;17.85;;;;;;;;;;6262766;28;20512;-73
2021/12/04 20:02:26;;;;;;;28.42;17.13;;;;;;;;;;6258355;28;20040;-72
2021/12/04 20:05:47;;;;;;;28.55;18.15;;;;;;;;;;6280873;28;20036;-73
2021/12/04 20:15:28;;;;;;;27.80;18.15;;;;;;;;;;6282261;28;20376;-73
2021/12/04 20:18:29;;;;;;;26.90;18.10;;;;;;;;;;6283095;28;20174;-71
2021/12/04 20:21:40;;;;;;;26.80;17.35;;;;;;;;;;6288702;28;20177;-72
2021/12/04 20:24:50;;;;;;;27.20;17.98;;;;;;;;;;6295360;28;20101;-71
2021/12/04 20:28:01;;;;;;;28.85;18.58;;;;;;;;;;6291138;28;20697;-71
2021/12/04 20:31:05;;;;;;;27.08;18.38;;;;;;;;;;6279242;28;20044;-80
2021/12/04 20:34:15;;;;;;;28.98;20.00;;;;;;;;;;6296892;28;20105;-71
2021/12/04 20:37:41;;;;;;;27.20;18.52;;;;;;;;;;6285838;28;20052;-72
2021/12/04 21:07:33;;;;;;;25.08;17.92;;;;;;;;;;6281520;28;20041;-70
2021/12/04 21:10:59;;;;;;;29.65;18.38;;;;;;;;;;6276601;28;20413;-71
2021/12/04 21:50:39;;;;;;;28.40;19.35;;;;;;;;;;6255406;28;20056;-73
2021/12/04 21:53:41;;;;;;;29.25;19.15;;;;;;;;;;6272205;28;20041;-71
2021/12/04 21:56:51;;;;;;;27.88;18.95;;;;;;;;;;6257194;28;20508;-73
2021/12/04 22:09:56;;;;;;;31.40;19.27;;;;;;;;;;6287506;28;20422;-72
2021/12/04 22:13:07;;;;;;;26.42;17.77;;;;;;;;;;6284957;28;20056;-71
2021/12/04 22:56:37;;;;;;;24.15;15.20;;;;;;;;;;6279223;28;20045;-71
2021/12/04 22:59:39;;;;;;;25.02;15.18;;;;;;;;;;6290942;28;20040;-71
2021/12/04 23:02:42;;;;;;;26.30;16.05;;;;;;;;;;6266860;28;20051;-70